LEXJ/SDR METAR and TAF weather

Enter ICAO airport designator
Station Type Date Time Source
LEXJ METAR 2022/09/26 09:30 UTC NOAA

LEXJ 260930Z 22007KT 9999 BKN032 BKN060 15/13 Q1018


Station Type Date Time Source
LEXJ Decoded METAR 2022/09/26 09:30 UTC NOAA

Santander / Parayas, Spain (LEXJ) 43-26N 003-49W 9M
Sep 26, 2022 - 05:30 AM EDT / 2022.09.26 0930 UTC
Wind: from the SW (220 degrees) at 8 MPH (7 KT):0
Visibility: greater than 7 mile(s):0
Sky conditions: mostly cloudy
Temperature: 59 F (15 C)
Dew Point: 55 F (13 C)
Relative Humidity: 87%
Pressure (altimeter): 30.06 in. Hg (1018 hPa)
ob: LEXJ 260930Z 22007KT 9999 BKN032 BKN060 15/13 Q1018
cycle: 9

Station Type Date Time Source
LEXJ TAF 2022/09/26 09:27 UTC NOAA

TAF LEXJ 260800Z 2609/2709 25009KT 9999 SCT025 BKN035 TX18/2614Z TN15/2705Z
TEMPO 2609/2709 28015G25KT PROB30
TEMPO 2622/2706 28018G35KT PROB40
TEMPO 2609/2612 3000 RA BKN010
TEMPO 2621/2708 3000 RA BKN010

Example: see airport list